sensor_id;sensor_type;location;lat;lon;timestamp;P1;durP1;ratioP1;P2;durP2;ratioP2
58659;SDS011;44429;45.110;20.622;2023-01-29T00:01:29;1.27;;;0.82;;
58659;SDS011;44429;45.110;20.622;2023-01-29T00:03:56;7.68;;;2.78;;
58659;SDS011;44429;45.110;20.622;2023-01-29T00:06:22;2.10;;;1.10;;
58659;SDS011;44429;45.110;20.622;2023-01-29T00:08:48;1.83;;;1.27;;
58659;SDS011;44429;45.110;20.622;2023-01-29T00:11:14;3.85;;;2.50;;
58659;SDS011;44429;45.110;20.622;2023-01-29T00:13:41;4.50;;;1.73;;
58659;SDS011;44429;45.110;20.622;2023-01-29T00:16:07;7.75;;;1.85;;
58659;SDS011;44429;45.110;20.622;2023-01-29T00:18:36;4.22;;;1.98;;
58659;SDS011;44429;45.110;20.622;2023-01-29T00:21:02;11.48;;;1.55;;
58659;SDS011;44429;45.110;20.622;2023-01-29T00:23:28;3.42;;;1.73;;
58659;SDS011;44429;45.110;20.622;2023-01-29T00:25:58;2.72;;;1.13;;
58659;SDS011;44429;45.110;20.622;2023-01-29T00:28:24;3.90;;;1.70;;
58659;SDS011;44429;45.110;20.622;2023-01-29T00:30:50;1.90;;;1.02;;
58659;SDS011;44429;45.110;20.622;2023-01-29T00:33:16;2.05;;;1.63;;
58659;SDS011;44429;45.110;20.622;2023-01-29T00:35:42;3.40;;;1.35;;
58659;SDS011;44429;45.110;20.622;2023-01-29T00:38:08;2.25;;;1.55;;
58659;SDS011;44429;45.110;20.622;2023-01-29T00:40:36;2.22;;;1.67;;
58659;SDS011;44429;45.110;20.622;2023-01-29T00:43:21;2.85;;;2.17;;
58659;SDS011;44429;45.110;20.622;2023-01-29T00:46:05;15.50;;;1.73;;
58659;SDS011;44429;45.110;20.622;2023-01-29T00:48:32;5.57;;;2.88;;
58659;SDS011;44429;45.110;20.622;2023-01-29T00:50:58;3.03;;;1.30;;
58659;SDS011;44429;45.110;20.622;2023-01-29T00:53:24;2.15;;;1.38;;
58659;SDS011;44429;45.110;20.622;2023-01-29T00:55:50;4.50;;;1.67;;
58659;SDS011;44429;45.110;20.622;2023-01-29T00:58:16;2.50;;;1.15;;
58659;SDS011;44429;45.110;20.622;2023-01-29T01:00:49;6.90;;;3.35;;
58659;SDS011;44429;45.110;20.622;2023-01-29T01:03:15;6.95;;;2.05;;
58659;SDS011;44429;45.110;20.622;2023-01-29T01:05:42;2.10;;;1.67;;
58659;SDS011;44429;45.110;20.622;2023-01-29T01:08:08;2.28;;;1.33;;
58659;SDS011;44429;45.110;20.622;2023-01-29T01:10:58;2.20;;;1.30;;
58659;SDS011;44429;45.110;20.622;2023-01-29T01:13:24;2.83;;;1.35;;
58659;SDS011;44429;45.110;20.622;2023-01-29T01:15:51;2.70;;;1.63;;
58659;SDS011;44429;45.110;20.622;2023-01-29T01:18:17;2.38;;;1.02;;
58659;SDS011;44429;45.110;20.622;2023-01-29T01:20:46;0.45;;;0.22;;
58659;SDS011;44429;45.110;20.622;2023-01-29T01:23:15;0.55;;;0.35;;
58659;SDS011;44429;45.110;20.622;2023-01-29T01:25:41;7.15;;;1.73;;
58659;SDS011;44429;45.110;20.622;2023-01-29T01:28:07;1.38;;;0.68;;
58659;SDS011;44429;45.110;20.622;2023-01-29T01:30:34;7.40;;;1.95;;
58659;SDS011;44429;45.110;20.622;2023-01-29T01:33:01;2.80;;;1.30;;
58659;SDS011;44429;45.110;20.622;2023-01-29T01:35:27;1.98;;;1.00;;
58659;SDS011;44429;45.110;20.622;2023-01-29T01:37:53;2.13;;;1.40;;
58659;SDS011;44429;45.110;20.622;2023-01-29T01:40:20;1.85;;;1.13;;
58659;SDS011;44429;45.110;20.622;2023-01-29T01:42:51;3.25;;;1.48;;
58659;SDS011;44429;45.110;20.622;2023-01-29T01:45:35;0.70;;;0.32;;
58659;SDS011;44429;45.110;20.622;2023-01-29T01:53:06;9.05;;;1.05;;
58659;SDS011;44429;45.110;20.622;2023-01-29T01:55:34;5.68;;;0.73;;
58659;SDS011;44429;45.110;20.622;2023-01-29T01:58:03;4.70;;;1.65;;
58659;SDS011;44429;45.110;20.622;2023-01-29T02:00:30;4.60;;;2.92;;
58659;SDS011;44429;45.110;20.622;2023-01-29T02:02:56;1.25;;;0.65;;
58659;SDS011;44429;45.110;20.622;2023-01-29T02:05:41;1.63;;;1.08;;
58659;SDS011;44429;45.110;20.622;2023-01-29T02:08:29;3.03;;;0.80;;
58659;SDS011;44429;45.110;20.622;2023-01-29T02:11:16;5.75;;;2.15;;
58659;SDS011;44429;45.110;20.622;2023-01-29T02:13:42;2.33;;;1.38;;
58659;SDS011;44429;45.110;20.622;2023-01-29T02:16:09;2.15;;;0.70;;
58659;SDS011;44429;45.110;20.622;2023-01-29T02:18:35;5.43;;;1.90;;
58659;SDS011;44429;45.110;20.622;2023-01-29T02:24:20;2.35;;;1.55;;
58659;SDS011;44429;45.110;20.622;2023-01-29T02:29:19;2.08;;;1.60;;
58659;SDS011;44429;45.110;20.622;2023-01-29T02:31:54;2.63;;;1.80;;
58659;SDS011;44429;45.110;20.622;2023-01-29T02:39:27;3.97;;;2.33;;
58659;SDS011;44429;45.110;20.622;2023-01-29T02:52:35;2.72;;;2.30;;
58659;SDS011;44429;45.110;20.622;2023-01-29T02:55:11;0.68;;;0.35;;
58659;SDS011;44429;45.110;20.622;2023-01-29T02:57:38;3.67;;;1.35;;
58659;SDS011;44429;45.110;20.622;2023-01-29T03:00:18;0.93;;;0.60;;
58659;SDS011;44429;45.110;20.622;2023-01-29T03:03:02;2.22;;;1.38;;
58659;SDS011;44429;45.110;20.622;2023-01-29T03:05:31;2.13;;;1.35;;
58659;SDS011;44429;45.110;20.622;2023-01-29T03:08:00;0.70;;;0.47;;
58659;SDS011;44429;45.110;20.622;2023-01-29T03:10:29;0.77;;;0.65;;
58659;SDS011;44429;45.110;20.622;2023-01-29T03:13:02;4.88;;;2.40;;
58659;SDS011;44429;45.110;20.622;2023-01-29T03:15:31;1.00;;;0.47;;
58659;SDS011;44429;45.110;20.622;2023-01-29T03:18:10;11.70;;;1.75;;
58659;SDS011;44429;45.110;20.622;2023-01-29T03:20:42;3.63;;;1.48;;
58659;SDS011;44429;45.110;20.622;2023-01-29T03:23:16;0.80;;;0.40;;
58659;SDS011;44429;45.110;20.622;2023-01-29T03:25:48;4.93;;;3.03;;
58659;SDS011;44429;45.110;20.622;2023-01-29T03:28:34;2.67;;;1.98;;
58659;SDS011;44429;45.110;20.622;2023-01-29T03:31:18;0.65;;;0.45;;
58659;SDS011;44429;45.110;20.622;2023-01-29T03:34:11;1.55;;;0.82;;
58659;SDS011;44429;45.110;20.622;2023-01-29T03:36:52;2.15;;;1.63;;
58659;SDS011;44429;45.110;20.622;2023-01-29T03:39:20;3.83;;;1.17;;
58659;SDS011;44429;45.110;20.622;2023-01-29T03:47:03;2.63;;;0.68;;
58659;SDS011;44429;45.110;20.622;2023-01-29T03:54:57;3.90;;;1.60;;
58659;SDS011;44429;45.110;20.622;2023-01-29T03:57:28;1.55;;;0.90;;
58659;SDS011;44429;45.110;20.622;2023-01-29T03:59:57;3.15;;;1.45;;
58659;SDS011;44429;45.110;20.622;2023-01-29T04:02:34;1.63;;;1.40;;
58659;SDS011;44429;45.110;20.622;2023-01-29T04:05:08;2.67;;;1.55;;
58659;SDS011;44429;45.110;20.622;2023-01-29T04:07:36;1.38;;;1.27;;
58659;SDS011;44429;45.110;20.622;2023-01-29T04:10:21;1.55;;;1.15;;
58659;SDS011;44429;45.110;20.622;2023-01-29T04:12:51;2.58;;;1.17;;
58659;SDS011;44429;45.110;20.622;2023-01-29T04:15:19;5.75;;;2.85;;
58659;SDS011;44429;45.110;20.622;2023-01-29T04:17:51;3.40;;;1.98;;
58659;SDS011;44429;45.110;20.622;2023-01-29T04:20:18;0.82;;;0.60;;
58659;SDS011;44429;45.110;20.622;2023-01-29T04:22:45;2.35;;;1.35;;
58659;SDS011;44429;45.110;20.622;2023-01-29T04:25:20;2.20;;;0.82;;
58659;SDS011;44429;45.110;20.622;2023-01-29T04:30:57;4.20;;;1.58;;
58659;SDS011;44429;45.110;20.622;2023-01-29T04:33:27;4.97;;;1.83;;
58659;SDS011;44429;45.110;20.622;2023-01-29T04:36:13;1.85;;;1.10;;
58659;SDS011;44429;45.110;20.622;2023-01-29T04:46:28;9.95;;;2.60;;
58659;SDS011;44429;45.110;20.622;2023-01-29T04:53:56;4.47;;;2.10;;
58659;SDS011;44429;45.110;20.622;2023-01-29T04:56:35;1.35;;;0.60;;
58659;SDS011;44429;45.110;20.622;2023-01-29T04:59:05;1.92;;;0.95;;
58659;SDS011;44429;45.110;20.622;2023-01-29T05:01:32;1.42;;;0.77;;
58659;SDS011;44429;45.110;20.622;2023-01-29T05:03:59;2.85;;;1.55;;
58659;SDS011;44429;45.110;20.622;2023-01-29T05:06:27;2.97;;;1.33;;
58659;SDS011;44429;45.110;20.622;2023-01-29T05:08:54;2.72;;;1.40;;
58659;SDS011;44429;45.110;20.622;2023-01-29T05:11:22;0.93;;;0.35;;
58659;SDS011;44429;45.110;20.622;2023-01-29T05:13:49;0.32;;;0.20;;
58659;SDS011;44429;45.110;20.622;2023-01-29T05:18:41;3.13;;;2.05;;
58659;SDS011;44429;45.110;20.622;2023-01-29T05:21:07;0.95;;;0.52;;
58659;SDS011;44429;45.110;20.622;2023-01-29T05:23:34;5.63;;;3.90;;
58659;SDS011;44429;45.110;20.622;2023-01-29T05:26:00;2.60;;;0.98;;
58659;SDS011;44429;45.110;20.622;2023-01-29T05:28:26;11.40;;;2.10;;
58659;SDS011;44429;45.110;20.622;2023-01-29T05:30:53;3.38;;;1.40;;
58659;SDS011;44429;45.110;20.622;2023-01-29T05:33:21;7.90;;;1.40;;
58659;SDS011;44429;45.110;20.622;2023-01-29T05:35:48;6.03;;;2.03;;
58659;SDS011;44429;45.110;20.622;2023-01-29T05:38:14;5.25;;;1.00;;
58659;SDS011;44429;45.110;20.622;2023-01-29T05:40:40;4.68;;;2.08;;
58659;SDS011;44429;45.110;20.622;2023-01-29T05:43:25;1.80;;;1.30;;
58659;SDS011;44429;45.110;20.622;2023-01-29T05:45:55;0.77;;;0.57;;
58659;SDS011;44429;45.110;20.622;2023-01-29T05:48:22;1.40;;;1.02;;
58659;SDS011;44429;45.110;20.622;2023-01-29T05:50:48;2.35;;;0.70;;
58659;SDS011;44429;45.110;20.622;2023-01-29T05:53:14;1.25;;;0.82;;
58659;SDS011;44429;45.110;20.622;2023-01-29T05:55:43;3.83;;;1.92;;
58659;SDS011;44429;45.110;20.622;2023-01-29T05:58:10;1.60;;;1.33;;
58659;SDS011;44429;45.110;20.622;2023-01-29T06:00:36;1.33;;;1.08;;
58659;SDS011;44429;45.110;20.622;2023-01-29T06:03:02;1.50;;;0.77;;
58659;SDS011;44429;45.110;20.622;2023-01-29T06:05:28;1.83;;;0.93;;
58659;SDS011;44429;45.110;20.622;2023-01-29T06:07:54;1.17;;;0.35;;
58659;SDS011;44429;45.110;20.622;2023-01-29T06:10:20;2.10;;;1.25;;
58659;SDS011;44429;45.110;20.622;2023-01-29T06:12:46;0.28;;;0.17;;
58659;SDS011;44429;45.110;20.622;2023-01-29T06:15:12;0.65;;;0.40;;
58659;SDS011;44429;45.110;20.622;2023-01-29T06:17:39;0.25;;;0.10;;
58659;SDS011;44429;45.110;20.622;2023-01-29T06:20:06;1.05;;;0.47;;
58659;SDS011;44429;45.110;20.622;2023-01-29T06:22:32;2.30;;;1.05;;
58659;SDS011;44429;45.110;20.622;2023-01-29T06:24:58;1.90;;;1.17;;
58659;SDS011;44429;45.110;20.622;2023-01-29T06:27:24;1.83;;;1.25;;
58659;SDS011;44429;45.110;20.622;2023-01-29T06:29:50;1.45;;;0.63;;
58659;SDS011;44429;45.110;20.622;2023-01-29T06:32:16;0.68;;;0.38;;
58659;SDS011;44429;45.110;20.622;2023-01-29T06:34:42;0.10;;;0.08;;
58659;SDS011;44429;45.110;20.622;2023-01-29T06:37:08;1.17;;;0.93;;
58659;SDS011;44429;45.110;20.622;2023-01-29T06:39:34;2.08;;;1.08;;
58659;SDS011;44429;45.110;20.622;2023-01-29T06:42:00;2.22;;;0.85;;
58659;SDS011;44429;45.110;20.622;2023-01-29T06:44:26;0.95;;;0.82;;
58659;SDS011;44429;45.110;20.622;2023-01-29T06:46:52;0.57;;;0.57;;
58659;SDS011;44429;45.110;20.622;2023-01-29T06:49:18;1.85;;;1.20;;
58659;SDS011;44429;45.110;20.622;2023-01-29T06:51:45;0.73;;;0.50;;
58659;SDS011;44429;45.110;20.622;2023-01-29T06:54:11;1.77;;;0.80;;
58659;SDS011;44429;45.110;20.622;2023-01-29T06:56:37;0.93;;;0.75;;
58659;SDS011;44429;45.110;20.622;2023-01-29T06:59:03;1.27;;;1.10;;
58659;SDS011;44429;45.110;20.622;2023-01-29T07:01:29;3.17;;;1.25;;
58659;SDS011;44429;45.110;20.622;2023-01-29T07:03:55;2.13;;;1.15;;
58659;SDS011;44429;45.110;20.622;2023-01-29T07:06:26;7.75;;;1.70;;
58659;SDS011;44429;45.110;20.622;2023-01-29T07:08:52;8.40;;;2.65;;
58659;SDS011;44429;45.110;20.622;2023-01-29T07:11:18;3.83;;;2.17;;
58659;SDS011;44429;45.110;20.622;2023-01-29T07:13:44;1.88;;;0.98;;
58659;SDS011;44429;45.110;20.622;2023-01-29T07:16:10;1.73;;;0.93;;
58659;SDS011;44429;45.110;20.622;2023-01-29T07:18:36;1.13;;;0.63;;
58659;SDS011;44429;45.110;20.622;2023-01-29T07:21:05;0.50;;;0.32;;
58659;SDS011;44429;45.110;20.622;2023-01-29T07:23:31;8.43;;;3.88;;
58659;SDS011;44429;45.110;20.622;2023-01-29T07:26:01;3.17;;;2.33;;
58659;SDS011;44429;45.110;20.622;2023-01-29T07:28:27;18.10;;;7.45;;
58659;SDS011;44429;45.110;20.622;2023-01-29T07:30:57;26.98;;;11.27;;
58659;SDS011;44429;45.110;20.622;2023-01-29T07:33:23;12.55;;;9.27;;
58659;SDS011;44429;45.110;20.622;2023-01-29T07:35:49;15.88;;;9.95;;
58659;SDS011;44429;45.110;20.622;2023-01-29T07:38:16;13.52;;;7.28;;
58659;SDS011;44429;45.110;20.622;2023-01-29T07:40:42;12.88;;;6.22;;
58659;SDS011;44429;45.110;20.622;2023-01-29T07:43:08;24.10;;;11.05;;
58659;SDS011;44429;45.110;20.622;2023-01-29T07:45:35;18.90;;;10.15;;
58659;SDS011;44429;45.110;20.622;2023-01-29T07:48:02;21.65;;;7.75;;
58659;SDS011;44429;45.110;20.622;2023-01-29T07:50:29;8.73;;;4.65;;
58659;SDS011;44429;45.110;20.622;2023-01-29T07:52:55;7.75;;;3.88;;
58659;SDS011;44429;45.110;20.622;2023-01-29T07:55:21;3.75;;;2.05;;
58659;SDS011;44429;45.110;20.622;2023-01-29T07:57:53;4.03;;;2.00;;
58659;SDS011;44429;45.110;20.622;2023-01-29T08:00:19;7.45;;;2.22;;
58659;SDS011;44429;45.110;20.622;2023-01-29T08:02:46;1.80;;;0.70;;
58659;SDS011;44429;45.110;20.622;2023-01-29T08:05:12;3.10;;;1.25;;
58659;SDS011;44429;45.110;20.622;2023-01-29T08:07:38;2.35;;;1.27;;
58659;SDS011;44429;45.110;20.622;2023-01-29T08:10:04;2.08;;;1.38;;
58659;SDS011;44429;45.110;20.622;2023-01-29T08:12:30;5.47;;;3.13;;
58659;SDS011;44429;45.110;20.622;2023-01-29T08:14:56;3.13;;;2.42;;
58659;SDS011;44429;45.110;20.622;2023-01-29T08:17:22;3.05;;;1.98;;
58659;SDS011;44429;45.110;20.622;2023-01-29T08:19:48;4.70;;;2.10;;
58659;SDS011;44429;45.110;20.622;2023-01-29T08:22:14;7.28;;;2.35;;
58659;SDS011;44429;45.110;20.622;2023-01-29T08:24:41;6.40;;;3.30;;
58659;SDS011;44429;45.110;20.622;2023-01-29T08:27:07;4.82;;;3.22;;
58659;SDS011;44429;45.110;20.622;2023-01-29T08:29:33;5.85;;;3.08;;
58659;SDS011;44429;45.110;20.622;2023-01-29T08:32:00;9.52;;;2.38;;
58659;SDS011;44429;45.110;20.622;2023-01-29T08:34:26;2.10;;;0.93;;
58659;SDS011;44429;45.110;20.622;2023-01-29T08:36:53;1.52;;;1.00;;
58659;SDS011;44429;45.110;20.622;2023-01-29T08:39:19;2.83;;;1.20;;
58659;SDS011;44429;45.110;20.622;2023-01-29T08:41:45;4.32;;;2.95;;
58659;SDS011;44429;45.110;20.622;2023-01-29T08:44:11;0.75;;;0.75;;
58659;SDS011;44429;45.110;20.622;2023-01-29T08:46:37;2.45;;;0.95;;
58659;SDS011;44429;45.110;20.622;2023-01-29T08:49:05;7.47;;;3.47;;
58659;SDS011;44429;45.110;20.622;2023-01-29T08:51:32;8.25;;;3.05;;
58659;SDS011;44429;45.110;20.622;2023-01-29T08:53:58;3.05;;;1.52;;
58659;SDS011;44429;45.110;20.622;2023-01-29T08:56:24;12.35;;;1.38;;
58659;SDS011;44429;45.110;20.622;2023-01-29T08:58:50;1.23;;;0.60;;
58659;SDS011;44429;45.110;20.622;2023-01-29T09:01:16;1.08;;;0.95;;
58659;SDS011;44429;45.110;20.622;2023-01-29T09:03:42;3.85;;;1.83;;
58659;SDS011;44429;45.110;20.622;2023-01-29T09:06:09;3.42;;;2.33;;
58659;SDS011;44429;45.110;20.622;2023-01-29T09:08:35;2.58;;;1.85;;
58659;SDS011;44429;45.110;20.622;2023-01-29T09:11:02;3.00;;;0.70;;
58659;SDS011;44429;45.110;20.622;2023-01-29T09:13:28;6.70;;;1.58;;
58659;SDS011;44429;45.110;20.622;2023-01-29T09:15:57;2.78;;;1.98;;
58659;SDS011;44429;45.110;20.622;2023-01-29T09:18:23;2.28;;;1.92;;
58659;SDS011;44429;45.110;20.622;2023-01-29T09:20:49;3.45;;;1.55;;
58659;SDS011;44429;45.110;20.622;2023-01-29T09:23:15;1.88;;;0.55;;
58659;SDS011;44429;45.110;20.622;2023-01-29T09:25:42;2.97;;;1.35;;
58659;SDS011;44429;45.110;20.622;2023-01-29T09:28:08;2.33;;;1.17;;
58659;SDS011;44429;45.110;20.622;2023-01-29T09:30:34;4.65;;;1.95;;
58659;SDS011;44429;45.110;20.622;2023-01-29T09:33:04;1.50;;;0.93;;
58659;SDS011;44429;45.110;20.622;2023-01-29T09:35:32;2.95;;;1.10;;
58659;SDS011;44429;45.110;20.622;2023-01-29T09:37:58;3.42;;;2.25;;
58659;SDS011;44429;45.110;20.622;2023-01-29T09:40:26;3.28;;;1.73;;
58659;SDS011;44429;45.110;20.622;2023-01-29T09:43:03;12.75;;;4.28;;
58659;SDS011;44429;45.110;20.622;2023-01-29T09:45:31;6.65;;;4.13;;
58659;SDS011;44429;45.110;20.622;2023-01-29T09:47:59;4.35;;;2.45;;
58659;SDS011;44429;45.110;20.622;2023-01-29T09:50:46;8.05;;;3.05;;
58659;SDS011;44429;45.110;20.622;2023-01-29T09:53:19;22.90;;;3.70;;
58659;SDS011;44429;45.110;20.622;2023-01-29T09:55:50;5.00;;;2.10;;
58659;SDS011;44429;45.110;20.622;2023-01-29T09:58:26;5.07;;;1.30;;
58659;SDS011;44429;45.110;20.622;2023-01-29T10:00:59;2.35;;;1.58;;
58659;SDS011;44429;45.110;20.622;2023-01-29T10:06:31;2.75;;;1.33;;
58659;SDS011;44429;45.110;20.622;2023-01-29T10:13:53;11.45;;;2.63;;
58659;SDS011;44429;45.110;20.622;2023-01-29T10:16:35;6.85;;;3.00;;
58659;SDS011;44429;45.110;20.622;2023-01-29T10:19:10;10.48;;;6.03;;
58659;SDS011;44429;45.110;20.622;2023-01-29T10:22:04;6.05;;;3.88;;
58659;SDS011;44429;45.110;20.622;2023-01-29T10:26:51;6.30;;;3.38;;
58659;SDS011;44429;45.110;20.622;2023-01-29T10:29:18;4.90;;;3.13;;
58659;SDS011;44429;45.110;20.622;2023-01-29T10:31:47;26.77;;;6.60;;
58659;SDS011;44429;45.110;20.622;2023-01-29T10:34:22;6.47;;;2.25;;
58659;SDS011;44429;45.110;20.622;2023-01-29T10:36:49;4.80;;;2.50;;
58659;SDS011;44429;45.110;20.622;2023-01-29T10:39:16;16.60;;;5.20;;
58659;SDS011;44429;45.110;20.622;2023-01-29T10:51:54;17.08;;;3.40;;
58659;SDS011;44429;45.110;20.622;2023-01-29T10:54:27;2.25;;;1.23;;
58659;SDS011;44429;45.110;20.622;2023-01-29T11:01:58;1.20;;;0.57;;
58659;SDS011;44429;45.110;20.622;2023-01-29T11:04:25;1.23;;;0.55;;
58659;SDS011;44429;45.110;20.622;2023-01-29T11:06:51;3.25;;;1.30;;
58659;SDS011;44429;45.110;20.622;2023-01-29T11:09:25;4.80;;;2.75;;
58659;SDS011;44429;45.110;20.622;2023-01-29T11:12:03;5.32;;;2.80;;
58659;SDS011;44429;45.110;20.622;2023-01-29T11:14:41;3.65;;;1.27;;
58659;SDS011;44429;45.110;20.622;2023-01-29T11:17:19;0.82;;;0.50;;
58659;SDS011;44429;45.110;20.622;2023-01-29T11:19:46;2.05;;;1.23;;
58659;SDS011;44429;45.110;20.622;2023-01-29T11:24:41;1.02;;;0.75;;
58659;SDS011;44429;45.110;20.622;2023-01-29T11:27:23;2.55;;;1.15;;
58659;SDS011;44429;45.110;20.622;2023-01-29T11:29:53;4.70;;;2.08;;
58659;SDS011;44429;45.110;20.622;2023-01-29T11:37:37;0.57;;;0.38;;
58659;SDS011;44429;45.110;20.622;2023-01-29T11:40:45;7.30;;;2.13;;
58659;SDS011;44429;45.110;20.622;2023-01-29T11:42:52;2.03;;;1.63;;
58659;SDS011;44429;45.110;20.622;2023-01-29T11:47:48;2.65;;;1.02;;
58659;SDS011;44429;45.110;20.622;2023-01-29T11:50:19;5.38;;;2.03;;
58659;SDS011;44429;45.110;20.622;2023-01-29T11:52:46;0.40;;;0.20;;
58659;SDS011;44429;45.110;20.622;2023-01-29T11:55:23;0.90;;;0.52;;
58659;SDS011;44429;45.110;20.622;2023-01-29T11:57:51;3.45;;;1.55;;
58659;SDS011;44429;45.110;20.622;2023-01-29T12:02:48;1.40;;;1.10;;
58659;SDS011;44429;45.110;20.622;2023-01-29T12:05:18;2.50;;;0.98;;
58659;SDS011;44429;45.110;20.622;2023-01-29T12:07:46;4.65;;;1.75;;
58659;SDS011;44429;45.110;20.622;2023-01-29T12:13:05;1.42;;;0.63;;
58659;SDS011;44429;45.110;20.622;2023-01-29T12:15:31;12.13;;;2.50;;
58659;SDS011;44429;45.110;20.622;2023-01-29T12:20:28;2.15;;;1.73;;
58659;SDS011;44429;45.110;20.622;2023-01-29T12:25:22;1.75;;;1.13;;
58659;SDS011;44429;45.110;20.622;2023-01-29T12:30:49;3.70;;;1.88;;
58659;SDS011;44429;45.110;20.622;2023-01-29T12:38:55;3.30;;;0.98;;
58659;SDS011;44429;45.110;20.622;2023-01-29T12:41:29;3.88;;;0.82;;
58659;SDS011;44429;45.110;20.622;2023-01-29T12:44:03;3.15;;;1.90;;
58659;SDS011;44429;45.110;20.622;2023-01-29T12:46:32;2.85;;;2.38;;
58659;SDS011;44429;45.110;20.622;2023-01-29T12:49:00;5.13;;;2.47;;
58659;SDS011;44429;45.110;20.622;2023-01-29T12:51:32;1.95;;;1.15;;
58659;SDS011;44429;45.110;20.622;2023-01-29T12:54:02;1.27;;;0.63;;
58659;SDS011;44429;45.110;20.622;2023-01-29T12:56:37;4.22;;;2.28;;
58659;SDS011;44429;45.110;20.622;2023-01-29T13:02:52;24.45;;;8.70;;
58659;SDS011;44429;45.110;20.622;2023-01-29T13:04:54;16.42;;;8.43;;
58659;SDS011;44429;45.110;20.622;2023-01-29T13:07:24;33.03;;;14.50;;
58659;SDS011;44429;45.110;20.622;2023-01-29T13:09:53;47.05;;;19.80;;
58659;SDS011;44429;45.110;20.622;2023-01-29T13:12:21;14.70;;;11.05;;
58659;SDS011;44429;45.110;20.622;2023-01-29T13:14:50;25.15;;;8.93;;
58659;SDS011;44429;45.110;20.622;2023-01-29T13:17:40;11.52;;;7.78;;
58659;SDS011;44429;45.110;20.622;2023-01-29T13:20:12;19.08;;;9.77;;
58659;SDS011;44429;45.110;20.622;2023-01-29T13:22:41;16.17;;;9.65;;
58659;SDS011;44429;45.110;20.622;2023-01-29T13:25:15;4.63;;;2.97;;
58659;SDS011;44429;45.110;20.622;2023-01-29T13:27:42;5.82;;;2.55;;
58659;SDS011;44429;45.110;20.622;2023-01-29T13:30:31;2.17;;;1.10;;
58659;SDS011;44429;45.110;20.622;2023-01-29T13:32:57;3.10;;;2.10;;
58659;SDS011;44429;45.110;20.622;2023-01-29T13:35:33;1.10;;;0.50;;
58659;SDS011;44429;45.110;20.622;2023-01-29T13:37:59;2.28;;;1.50;;
58659;SDS011;44429;45.110;20.622;2023-01-29T13:40:26;2.08;;;1.30;;
58659;SDS011;44429;45.110;20.622;2023-01-29T13:42:53;2.70;;;1.45;;
58659;SDS011;44429;45.110;20.622;2023-01-29T13:45:21;1.67;;;1.15;;
58659;SDS011;44429;45.110;20.622;2023-01-29T13:47:49;5.20;;;2.13;;
58659;SDS011;44429;45.110;20.622;2023-01-29T13:52:51;4.00;;;2.53;;
58659;SDS011;44429;45.110;20.622;2023-01-29T14:07:58;3.35;;;2.15;;
58659;SDS011;44429;45.110;20.622;2023-01-29T14:10:26;3.60;;;2.38;;
58659;SDS011;44429;45.110;20.622;2023-01-29T14:12:53;2.55;;;1.30;;
58659;SDS011;44429;45.110;20.622;2023-01-29T14:23:27;1.77;;;0.95;;
58659;SDS011;44429;45.110;20.622;2023-01-29T14:25:55;2.05;;;1.20;;
58659;SDS011;44429;45.110;20.622;2023-01-29T14:28:22;2.88;;;1.67;;
58659;SDS011;44429;45.110;20.622;2023-01-29T14:30:49;3.72;;;2.30;;
58659;SDS011;44429;45.110;20.622;2023-01-29T14:35:54;7.55;;;4.38;;
58659;SDS011;44429;45.110;20.622;2023-01-29T14:38:22;11.73;;;4.05;;
58659;SDS011;44429;45.110;20.622;2023-01-29T14:40:48;14.07;;;7.25;;
58659;SDS011;44429;45.110;20.622;2023-01-29T14:43:15;9.38;;;4.68;;
58659;SDS011;44429;45.110;20.622;2023-01-29T14:45:44;15.55;;;7.00;;
58659;SDS011;44429;45.110;20.622;2023-01-29T14:50:40;18.38;;;9.32;;
58659;SDS011;44429;45.110;20.622;2023-01-29T14:55:47;9.40;;;6.30;;
58659;SDS011;44429;45.110;20.622;2023-01-29T14:58:22;4.20;;;2.53;;
58659;SDS011;44429;45.110;20.622;2023-01-29T15:00:50;2.03;;;1.10;;
58659;SDS011;44429;45.110;20.622;2023-01-29T15:03:38;0.85;;;0.50;;
58659;SDS011;44429;45.110;20.622;2023-01-29T15:06:06;1.15;;;0.70;;
58659;SDS011;44429;45.110;20.622;2023-01-29T15:08:36;4.45;;;2.40;;
58659;SDS011;44429;45.110;20.622;2023-01-29T15:11:06;2.80;;;1.45;;
58659;SDS011;44429;45.110;20.622;2023-01-29T15:19:24;1.95;;;1.48;;
58659;SDS011;44429;45.110;20.622;2023-01-29T15:22:00;3.70;;;1.95;;
58659;SDS011;44429;45.110;20.622;2023-01-29T15:24:26;4.28;;;1.85;;
58659;SDS011;44429;45.110;20.622;2023-01-29T15:26:52;7.53;;;2.67;;
58659;SDS011;44429;45.110;20.622;2023-01-29T15:29:22;4.32;;;0.98;;
58659;SDS011;44429;45.110;20.622;2023-01-29T15:31:49;2.67;;;1.45;;
58659;SDS011;44429;45.110;20.622;2023-01-29T15:34:15;3.28;;;1.17;;
58659;SDS011;44429;45.110;20.622;2023-01-29T15:36:41;8.65;;;1.88;;
58659;SDS011;44429;45.110;20.622;2023-01-29T15:41:33;1.90;;;1.15;;
58659;SDS011;44429;45.110;20.622;2023-01-29T15:44:00;10.85;;;3.70;;
58659;SDS011;44429;45.110;20.622;2023-01-29T15:46:27;1.90;;;1.33;;
58659;SDS011;44429;45.110;20.622;2023-01-29T15:48:55;1.95;;;0.73;;
58659;SDS011;44429;45.110;20.622;2023-01-29T15:51:26;4.22;;;2.42;;
58659;SDS011;44429;45.110;20.622;2023-01-29T15:53:55;0.65;;;0.30;;
58659;SDS011;44429;45.110;20.622;2023-01-29T15:56:23;3.03;;;1.55;;
58659;SDS011;44429;45.110;20.622;2023-01-29T15:58:52;2.05;;;1.42;;
58659;SDS011;44429;45.110;20.622;2023-01-29T16:01:19;1.55;;;1.17;;
58659;SDS011;44429;45.110;20.622;2023-01-29T16:03:48;2.65;;;1.48;;
58659;SDS011;44429;45.110;20.622;2023-01-29T16:06:14;4.38;;;1.35;;
58659;SDS011;44429;45.110;20.622;2023-01-29T16:08:41;3.38;;;1.17;;
58659;SDS011;44429;45.110;20.622;2023-01-29T16:11:09;2.97;;;1.80;;
58659;SDS011;44429;45.110;20.622;2023-01-29T16:13:35;11.10;;;1.40;;
58659;SDS011;44429;45.110;20.622;2023-01-29T16:16:15;3.40;;;1.92;;
58659;SDS011;44429;45.110;20.622;2023-01-29T16:18:44;12.23;;;3.80;;
58659;SDS011;44429;45.110;20.622;2023-01-29T16:21:16;6.60;;;2.60;;
58659;SDS011;44429;45.110;20.622;2023-01-29T16:23:48;3.95;;;2.05;;
58659;SDS011;44429;45.110;20.622;2023-01-29T16:26:15;4.45;;;2.20;;
58659;SDS011;44429;45.110;20.622;2023-01-29T16:28:42;4.03;;;1.70;;
58659;SDS011;44429;45.110;20.622;2023-01-29T16:31:09;1.83;;;1.05;;
58659;SDS011;44429;45.110;20.622;2023-01-29T16:33:38;4.40;;;1.40;;
58659;SDS011;44429;45.110;20.622;2023-01-29T16:36:11;3.25;;;1.40;;
58659;SDS011;44429;45.110;20.622;2023-01-29T16:38:40;3.25;;;2.03;;
58659;SDS011;44429;45.110;20.622;2023-01-29T16:48:39;1.23;;;0.65;;
58659;SDS011;44429;45.110;20.622;2023-01-29T16:51:11;2.95;;;1.25;;
58659;SDS011;44429;45.110;20.622;2023-01-29T16:53:38;2.95;;;1.08;;
58659;SDS011;44429;45.110;20.622;2023-01-29T16:56:05;1.17;;;0.63;;
58659;SDS011;44429;45.110;20.622;2023-01-29T16:58:32;4.43;;;1.48;;
58659;SDS011;44429;45.110;20.622;2023-01-29T17:01:08;2.72;;;0.63;;
58659;SDS011;44429;45.110;20.622;2023-01-29T17:03:34;3.20;;;2.05;;
58659;SDS011;44429;45.110;20.622;2023-01-29T17:06:08;3.92;;;1.60;;
58659;SDS011;44429;45.110;20.622;2023-01-29T17:08:34;6.03;;;2.10;;
58659;SDS011;44429;45.110;20.622;2023-01-29T17:11:01;17.83;;;4.43;;
58659;SDS011;44429;45.110;20.622;2023-01-29T17:18:49;3.70;;;1.98;;
58659;SDS011;44429;45.110;20.622;2023-01-29T17:21:15;2.95;;;1.67;;
58659;SDS011;44429;45.110;20.622;2023-01-29T17:23:41;4.80;;;1.83;;
58659;SDS011;44429;45.110;20.622;2023-01-29T17:26:07;10.90;;;1.92;;
58659;SDS011;44429;45.110;20.622;2023-01-29T17:28:34;3.08;;;1.77;;
58659;SDS011;44429;45.110;20.622;2023-01-29T17:31:01;5.88;;;1.33;;